• Join FlightAware (Why Join?)
  • Login
  • US Flag 
06:41PM EST


 

Airport Tracker/Info


-or-


 

Live Flight TrackerFlight Track Log ✈ PAL210 ✈ 01-May-2012 ✈ YMML / MEL - YSSY / SYD

Flight Track Log - Related Links

Times and Time Zones

All times are in EDT time to prevent confusion due to time zone crossing. See the PAL210 flight status page for this flight to view local times or setup timezone preferences in your user account.

Time Position Orientation Groundspeed Altitude Reporting Facility
EDT Latitude Longitude Course Direction KTS MPH feet Rate Location/Type
07:01PM -37.6459 144.8330 352° North 108 124 2,100  Level Aus ATC (RADAR)
07:02PM -37.6144 144.8271 22° Northeast 160 184 2,900 1,560 Climbing Aus ATC (RADAR)
07:03PM -37.5345 144.8674 44° Northeast 289 333 5,500 2,280 Climbing Aus ATC (RADAR)
07:03PM -37.5049 144.9029 44° Northeast 295 339 7,100 2,820 Climbing Aus ATC (RADAR)
07:04PM -37.4672 144.9480 54° Northeast 329 379 8,600 2,640 Climbing Aus ATC (RADAR)
07:05PM -37.4292 145.0143 54° Northeast 357 411 10,400 2,700 Climbing Aus ATC (RADAR)
07:05PM -37.3947 145.0738 54° Northeast 365 420 12,000 3,000 Climbing Aus ATC (RADAR)
07:06PM -37.3443 145.1609 54° Northeast 372 428 14,700 2,880 Climbing Aus ATC (RADAR)
07:07PM -37.2663 145.2948 54° Northeast 388 447 18,100 2,700 Climbing Aus ATC (RADAR)
07:08PM -37.2285 145.3592 54° Northeast 396 456 19,700 2,460 Climbing Aus ATC (RADAR)
07:09PM -37.1680 145.4633 54° Northeast 408 470 21,800 2,280 Climbing Aus ATC (RADAR)
07:10PM -37.1053 145.5697 53° Northeast 418 481 23,900 2,040 Climbing Aus ATC (RADAR)
07:10PM -37.0640 145.6393 54° Northeast 429 494 24,900 1,740 Climbing Aus ATC (RADAR)
07:11PM -36.9794 145.7830 53° Northeast 447 514 27,000 1,800 Climbing Aus ATC (RADAR)
07:13PM -36.8928 145.9280 53° Northeast 446 513 29,100 1,680 Climbing Aus ATC (RADAR)
07:13PM -36.8482 146.0027 53° Northeast 463 533 30,000 1,980 Climbing Aus ATC (RADAR)
07:14PM -36.7798 146.1175 53° Northeast 448 516 32,100 1,740 Climbing Aus ATC (RADAR)
07:15PM -36.7044 146.2428 53° Northeast 457 526 33,400 720 Climbing Aus ATC (RADAR)
07:16PM -36.6597 146.3174 53° Northeast 462 532 33,300 -120 Descending Aus ATC (RADAR)
07:17PM -36.5888 146.4342 53° Northeast 461 531 33,300  Level Aus ATC (RADAR)
07:18PM -36.4671 146.6373 52° Northeast 460 529 33,300  Level Aus ATC (RADAR)
07:19PM -36.4014 146.7433 53° Northeast 464 534 33,300  Level Aus ATC (RADAR)
07:20PM -36.3235 146.8712 53° Northeast 462 532 33,300  Level Aus ATC (RADAR)
07:21PM -36.2846 146.9345 53° Northeast 460 529 33,300  Level Aus ATC (RADAR)
07:22PM -36.1933 147.0830 53° Northeast 462 532 33,300  Level Aus ATC (RADAR)
07:24PM -36.0222 147.3585 53° Northeast 465 535 33,300  Level Aus ATC (RADAR)
07:25PM -35.9501 147.4752 52° Northeast 464 534 33,300  Level Aus ATC (RADAR)
07:26PM -35.8594 147.6205 52° Northeast 455 524 33,300  Level Aus ATC (RADAR)
07:28PM -35.7360 147.8167 52° Northeast 457 526 33,300  Level Aus ATC (RADAR)
07:29PM -35.6314 147.9825 52° Northeast 461 531 33,300  Level Aus ATC (RADAR)
07:30PM -35.5597 148.0959 52° Northeast 455 524 33,300  Level Aus ATC (RADAR)
07:31PM -35.4937 148.1997 52° Northeast 461 531 33,300  Level Aus ATC (RADAR)
07:32PM -35.4135 148.3248 53° Northeast 465 535 33,300 60 Level Aus ATC (RADAR)
07:32PM -35.3606 148.4100 53° Northeast 467 537 33,400  Climbing Aus ATC (RADAR)
07:35PM -35.1783 148.7010 52° Northeast 479 551 33,400  Level Aus ATC (RADAR)
07:35PM -35.1031 148.8204 52° Northeast 477 549 33,400  Level Aus ATC (RADAR)
07:36PM -35.0210 148.9493 52° Northeast 479 551 33,400 -840 Level Aus ATC (RADAR)
07:38PM -34.9165 149.1138 52° Northeast 485 558 31,600 -1,860 Descending Aus ATC (RADAR)
07:39PM -34.8065 149.2859 54° Northeast 466 536 28,700 -2,040 Descending Aus ATC (RADAR)
07:40PM -34.7204 149.4318 63° Northeast 445 512 26,600 -1,920 Descending Aus ATC (RADAR)
07:41PM -34.6920 149.4992 62° Northeast 437 503 25,500 -2,160 Descending Aus ATC (RADAR)
07:42PM -34.6215 149.6615 62° Northeast 418 481 22,900 -2,100 Descending Aus ATC (RADAR)
07:43PM -34.5890 149.7349 62° Northeast 413 475 21,700 -1,920 Descending Aus ATC (RADAR)
07:45PM -34.4335 150.0876 62° Northeast 387 445 16,200 -1,860 Descending Aus ATC (RADAR)
07:46PM -34.3867 150.1934 62° Northeast 375 432 14,700 -1,680 Descending Aus ATC (RADAR)
07:47PM -34.3452 150.2870 61° Northeast 366 421 13,300 -1,680 Descending Aus ATC (RADAR)
07:48PM -34.3005 150.3864 62° Northeast 355 409 11,800 -1,260 Descending Aus ATC (RADAR)
07:50PM -34.2357 150.5317 62° Northeast 325 374 10,400 -840 Descending Aus ATC (RADAR)
07:50PM -34.2113 150.5860 62° Northeast 304 350 10,200 -780 Descending Aus ATC (RADAR)
07:51PM -34.1754 150.6662 62° Northeast 285 328 9,300 -1,020 Descending Aus ATC (RADAR)
07:52PM -34.1468 150.7299 61° Northeast 278 320 8,500 -1,080 Descending Aus ATC (RADAR)
07:52PM -34.1250 150.7781 61° Northeast 272 313 7,900 -1,020 Descending Aus ATC (RADAR)
07:53PM -34.0942 150.8464 62° Northeast 270 311 7,100 -840 Descending Aus ATC (RADAR)
07:55PM -34.0412 150.9641 92° East 247 284 6,000 -480 Descending Aus ATC (RADAR)
07:56PM -34.0427 151.0318 135° Southeast 239 275 6,000 -240 Level Aus ATC (RADAR)
07:56PM -34.0785 151.0750 165° South 240 276 5,600 -660 Descending Aus ATC (RADAR)
07:57PM -34.1228 151.0894 160° South 245 282 5,100 -780 Descending Aus ATC (RADAR)
07:58PM -34.1658 151.1086 98° East 213 245 4,500 -840 Descending Aus ATC (RADAR)
07:58PM -34.1691 151.1393 67° East 174 200 4,100 -900 Descending Aus ATC (RADAR)
07:59PM -34.1523 151.1865 13° North 149 171 3,100 -960 Descending Aus ATC (RADAR)
08:00PM -34.1327 151.1920 14° North 144 166 2,600 -540 Descending Aus ATC (RADAR)
08:01PM -34.0941 151.2035 North 144 166 2,300 -300 Descending Aus ATC (RADAR)
08:02PM -34.0646 151.2066 348° North 144 166 2,100 -600 Descending Aus ATC (RADAR)
08:02PM -34.0385 151.2000 348° North 143 165 1,500 -780 Descending Aus ATC (RADAR)
08:03PM -34.0121 151.1931 348° North 127 146 1,000 -720 Descending Aus ATC (RADAR)